createdAt,value
2019-02-25T00:29:09.639Z,1036.04
2019-02-25T00:29:10.213Z,1036.02
2019-02-25T00:29:10.813Z,1036.01
2019-02-25T00:29:11.412Z,1035.98
2019-02-25T00:29:12.013Z,1036.01
2019-02-25T00:29:12.612Z,1036.00
2019-02-25T00:29:13.215Z,1035.98
2019-02-25T00:29:13.811Z,1036.00
2019-02-25T00:30:08.316Z,1036.00
2019-02-25T00:30:08.888Z,1036.00
2019-02-25T00:30:09.489Z,1036.00
2019-02-25T00:30:10.088Z,1036.03
2019-02-25T00:30:10.687Z,1036.02
2019-02-25T00:30:11.286Z,1035.95
2019-02-25T00:30:11.886Z,1035.97
2019-02-25T00:30:12.485Z,1036.01
2019-02-25T00:31:07.006Z,1035.95
2019-02-25T00:31:07.566Z,1035.98
2019-02-25T00:31:08.166Z,1035.95
2019-02-25T00:31:08.764Z,1035.98
2019-02-25T00:31:09.366Z,1035.93
2019-02-25T00:31:09.965Z,1035.97
2019-02-25T00:31:10.562Z,1036.01
2019-02-25T00:31:11.162Z,1035.97
2019-02-25T00:32:05.668Z,1035.95
2019-02-25T00:32:06.242Z,1035.97
2019-02-25T00:32:06.843Z,1035.94
2019-02-25T00:32:07.442Z,1035.96
2019-02-25T00:32:08.040Z,1035.94
2019-02-25T00:32:08.641Z,1035.96
2019-02-25T00:32:09.240Z,1035.95
2019-02-25T00:32:09.840Z,1035.98
2019-02-25T00:33:04.344Z,1035.93
2019-02-25T00:33:04.920Z,1035.94
2019-02-25T00:33:05.518Z,1035.94
2019-02-25T00:33:06.116Z,1035.91
2019-02-25T00:33:06.715Z,1035.92
2019-02-25T00:33:07.315Z,1035.91
2019-02-25T00:33:07.914Z,1035.90
2019-02-25T00:33:08.514Z,1035.92
2019-02-25T00:34:01.999Z,1035.90
2019-02-25T00:34:02.571Z,1035.89
2019-02-25T00:34:03.173Z,1035.90
2019-02-25T00:34:03.769Z,1035.90
2019-02-25T00:34:04.369Z,1035.91
2019-02-25T00:34:04.971Z,1035.89
2019-02-25T00:34:05.569Z,1035.95
2019-02-25T00:34:06.174Z,1035.92
2019-02-25T00:34:59.648Z,1035.90
2019-02-25T00:35:00.301Z,1035.89
2019-02-25T00:35:00.826Z,1035.88
2019-02-25T00:35:01.423Z,1035.92
2019-02-25T00:35:02.027Z,1035.92
2019-02-25T00:35:02.625Z,1035.89
2019-02-25T00:35:03.222Z,1035.90
2019-02-25T00:35:03.822Z,1035.87
2019-02-25T00:35:58.324Z,1035.91
2019-02-25T00:35:58.898Z,1035.91
2019-02-25T00:35:59.497Z,1035.90
2019-02-25T00:36:00.098Z,1035.92
2019-02-25T00:36:00.698Z,1035.88
2019-02-25T00:36:01.298Z,1035.91
2019-02-25T00:36:01.896Z,1035.90
2019-02-25T00:36:02.497Z,1035.86
2019-02-25T00:36:56.998Z,1035.89
2019-02-25T00:36:57.574Z,1035.86
2019-02-25T00:36:58.173Z,1035.87
2019-02-25T00:36:58.773Z,1035.90
2019-02-25T00:36:59.375Z,1035.85
2019-02-25T00:36:59.973Z,1035.87
2019-02-25T00:37:00.572Z,1035.90
2019-02-25T00:37:01.173Z,1035.88
2019-02-25T00:37:54.652Z,1035.87
2019-02-25T00:37:55.227Z,1035.88
2019-02-25T00:37:55.827Z,1035.86
2019-02-25T00:37:56.429Z,1035.83
2019-02-25T00:37:57.025Z,1035.91
2019-02-25T00:37:57.626Z,1035.87
2019-02-25T00:37:58.225Z,1035.88
2019-02-25T00:37:58.825Z,1035.91
2019-02-25T00:38:53.330Z,1035.89
2019-02-25T00:38:53.901Z,1035.87
2019-02-25T00:38:54.501Z,1035.80
2019-02-25T00:38:55.103Z,1035.83
2019-02-25T00:38:55.702Z,1035.86
2019-02-25T00:38:56.300Z,1035.82
2019-02-25T00:38:56.902Z,1035.86
2019-02-25T00:38:57.500Z,1035.88
2019-02-25T00:39:52.005Z,1035.86
2019-02-25T00:39:52.578Z,1035.86
2019-02-25T00:39:53.176Z,1035.89
2019-02-25T00:39:53.783Z,1035.85
2019-02-25T00:39:54.377Z,1035.86
2019-02-25T00:39:54.977Z,1035.85
2019-02-25T00:39:55.579Z,1035.85
2019-02-25T00:39:56.176Z,1035.89
2019-02-25T00:40:50.678Z,1035.86
2019-02-25T00:40:51.253Z,1035.86
2019-02-25T00:40:51.863Z,1035.85
2019-02-25T00:40:52.455Z,1035.89
2019-02-25T00:40:53.055Z,1035.83
2019-02-25T00:40:53.653Z,1035.86
2019-02-25T00:40:54.255Z,1035.85
2019-02-25T00:40:54.852Z,1035.84
2019-02-25T00:41:49.356Z,1035.87
2019-02-25T00:41:49.931Z,1035.85
2019-02-25T00:41:50.528Z,1035.84
2019-02-25T00:41:51.128Z,1035.84
2019-02-25T00:41:51.728Z,1035.80
2019-02-25T00:41:52.329Z,1035.86
2019-02-25T00:41:52.928Z,1035.82
2019-02-25T00:41:53.529Z,1035.83
2019-02-25T00:42:48.031Z,1035.82
2019-02-25T00:42:48.607Z,1035.84
2019-02-25T00:42:49.207Z,1035.83
2019-02-25T00:42:49.805Z,1035.82
2019-02-25T00:42:50.410Z,1035.82
2019-02-25T00:42:51.005Z,1035.82
2019-02-25T00:42:51.605Z,1035.83
2019-02-25T00:42:52.205Z,1035.86
2019-02-25T00:43:46.711Z,1035.84
2019-02-25T00:43:47.282Z,1035.83
2019-02-25T00:43:47.880Z,1035.87
2019-02-25T00:43:48.482Z,1035.85
2019-02-25T00:43:49.080Z,1035.83
2019-02-25T00:43:49.681Z,1035.83
2019-02-25T00:43:50.281Z,1035.84
2019-02-25T00:43:50.883Z,1035.80
2019-02-25T00:44:44.360Z,1035.88
2019-02-25T00:44:44.934Z,1035.85
2019-02-25T00:44:45.533Z,1035.85
2019-02-25T00:44:46.131Z,1035.85
2019-02-25T00:44:46.733Z,1035.85
2019-02-25T00:44:47.333Z,1035.82
2019-02-25T00:44:47.932Z,1035.81
2019-02-25T00:44:48.532Z,1035.84
2019-02-25T00:45:42.009Z,1035.88
2019-02-25T00:45:42.586Z,1035.84
2019-02-25T00:45:43.186Z,1035.82
2019-02-25T00:45:43.785Z,1035.82
2019-02-25T00:45:44.386Z,1035.86
2019-02-25T00:45:44.987Z,1035.85
2019-02-25T00:45:45.586Z,1035.79
2019-02-25T00:45:46.184Z,1035.87
2019-02-25T00:46:39.662Z,1035.83
2019-02-25T00:46:40.239Z,1035.84
2019-02-25T00:46:40.842Z,1035.81
2019-02-25T00:46:41.438Z,1035.80
2019-02-25T00:46:42.037Z,1035.79
2019-02-25T00:46:42.638Z,1035.82
2019-02-25T00:46:43.237Z,1035.83
2019-02-25T00:46:43.837Z,1035.81
2019-02-25T00:47:37.314Z,1035.83
2019-02-25T00:47:37.887Z,1035.83
2019-02-25T00:47:38.489Z,1035.83
2019-02-25T00:47:39.088Z,1035.81
2019-02-25T00:47:39.688Z,1035.88
2019-02-25T00:47:40.289Z,1035.82
2019-02-25T00:47:40.890Z,1035.82
2019-02-25T00:47:41.490Z,1035.81
2019-02-25T00:48:35.988Z,1035.79
2019-02-25T00:48:36.563Z,1035.81
2019-02-25T00:48:37.163Z,1035.79
2019-02-25T00:48:37.765Z,1035.81
2019-02-25T00:48:38.364Z,1035.81
2019-02-25T00:48:38.961Z,1035.86
2019-02-25T00:48:39.566Z,1035.86
2019-02-25T00:48:40.162Z,1035.79
2019-02-25T00:49:34.666Z,1035.84
2019-02-25T00:49:35.239Z,1035.85
2019-02-25T00:49:35.841Z,1035.86
2019-02-25T00:49:36.439Z,1035.83
2019-02-25T00:49:37.038Z,1035.82
2019-02-25T00:49:37.638Z,1035.81
2019-02-25T00:49:38.239Z,1035.82
2019-02-25T00:49:38.840Z,1035.81
2019-02-25T00:50:33.343Z,1035.81
2019-02-25T00:50:33.920Z,1035.83
2019-02-25T00:50:34.515Z,1035.83
2019-02-25T00:50:35.116Z,1035.81
2019-02-25T00:50:35.716Z,1035.82
2019-02-25T00:50:36.315Z,1035.83
2019-02-25T00:50:36.916Z,1035.84
2019-02-25T00:50:37.513Z,1035.85
2019-02-25T00:51:30.993Z,1035.80
2019-02-25T00:51:31.569Z,1035.80
2019-02-25T00:51:32.168Z,1035.79
2019-02-25T00:51:32.768Z,1035.83
2019-02-25T00:51:33.368Z,1035.79
2019-02-25T00:51:33.969Z,1035.82
2019-02-25T00:51:34.568Z,1035.84
2019-02-25T00:51:35.167Z,1035.84
2019-02-25T00:52:28.644Z,1035.86
2019-02-25T00:52:29.221Z,1035.84
2019-02-25T00:52:29.820Z,1035.82
2019-02-25T00:52:30.420Z,1035.83
2019-02-25T00:52:31.023Z,1035.82
2019-02-25T00:52:31.618Z,1035.89
2019-02-25T00:52:32.218Z,1035.87
2019-02-25T00:52:32.819Z,1035.88
2019-02-25T00:53:27.320Z,1035.87
2019-02-25T00:53:27.895Z,1035.87
2019-02-25T00:53:28.493Z,1035.84
2019-02-25T00:53:29.095Z,1035.90
2019-02-25T00:53:29.693Z,1035.85
2019-02-25T00:53:30.294Z,1035.85
2019-02-25T00:53:30.894Z,1035.88
2019-02-25T00:53:31.492Z,1035.87
2019-02-25T00:54:24.973Z,1035.87
2019-02-25T00:54:25.549Z,1035.86
2019-02-25T00:54:26.147Z,1035.86
2019-02-25T00:54:26.748Z,1035.86
2019-02-25T00:54:27.346Z,1035.85
2019-02-25T00:54:27.945Z,1035.91
2019-02-25T00:54:28.546Z,1035.86
2019-02-25T00:54:29.149Z,1035.90
2019-02-25T00:55:22.624Z,1035.88
2019-02-25T00:55:23.199Z,1035.91
2019-02-25T00:55:23.800Z,1035.90
2019-02-25T00:55:24.399Z,1035.91
2019-02-25T00:55:24.998Z,1035.96
2019-02-25T00:55:25.600Z,1035.93
2019-02-25T00:55:26.198Z,1035.88
2019-02-25T00:55:26.796Z,1035.90
2019-02-25T00:56:21.300Z,1035.95
2019-02-25T00:56:21.875Z,1035.90
2019-02-25T00:56:22.472Z,1035.95
2019-02-25T00:56:23.072Z,1035.87
2019-02-25T00:56:23.673Z,1035.89
2019-02-25T00:56:24.273Z,1035.88
2019-02-25T00:56:24.874Z,1035.90
2019-02-25T00:56:25.472Z,1035.92
2019-02-25T00:57:18.963Z,1035.92
2019-02-25T00:57:19.526Z,1035.93
2019-02-25T00:57:20.126Z,1035.89
2019-02-25T00:57:20.726Z,1035.93
2019-02-25T00:57:21.326Z,1035.93
2019-02-25T00:57:21.927Z,1035.92
2019-02-25T00:57:22.526Z,1035.92
2019-02-25T00:57:23.126Z,1035.92
2019-02-25T00:58:17.626Z,1035.92
2019-02-25T00:58:18.201Z,1035.90
2019-02-25T00:58:18.801Z,1035.90
2019-02-25T00:58:19.402Z,1035.92
2019-02-25T00:58:20.001Z,1035.92
2019-02-25T00:58:20.600Z,1035.92
2019-02-25T00:58:21.201Z,1035.95
2019-02-25T00:58:21.799Z,1035.93
2019-02-25T00:59:16.303Z,1035.92
2019-02-25T00:59:16.877Z,1035.88
2019-02-25T00:59:17.478Z,1035.92
2019-02-25T00:59:18.077Z,1035.90
2019-02-25T00:59:18.678Z,1035.89
2019-02-25T00:59:19.276Z,1035.90
2019-02-25T00:59:19.878Z,1035.92
2019-02-25T00:59:20.476Z,1035.91
2019-02-25T01:00:13.956Z,1035.90
2019-02-25T01:00:14.565Z,1035.92
2019-02-25T01:00:15.129Z,1035.90
2019-02-25T01:00:15.729Z,1035.92
2019-02-25T01:00:16.328Z,1035.92
2019-02-25T01:00:16.929Z,1035.91
2019-02-25T01:00:17.534Z,1035.91
2019-02-25T01:00:18.128Z,1035.87
2019-02-25T01:01:12.631Z,1035.91
2019-02-25T01:01:13.207Z,1035.91
2019-02-25T01:01:13.804Z,1035.93
2019-02-25T01:01:14.407Z,1035.91
2019-02-25T01:01:15.007Z,1035.89
2019-02-25T01:01:15.604Z,1035.91
2019-02-25T01:01:16.203Z,1035.91
2019-02-25T01:01:16.803Z,1035.94
2019-02-25T01:02:10.284Z,1035.90
2019-02-25T01:02:10.857Z,1035.92
2019-02-25T01:02:11.459Z,1035.89
2019-02-25T01:02:12.058Z,1035.92
2019-02-25T01:02:12.657Z,1035.89
2019-02-25T01:02:13.260Z,1035.86
2019-02-25T01:02:13.857Z,1035.87
2019-02-25T01:02:14.458Z,1035.89
2019-02-25T01:03:07.934Z,1035.92
2019-02-25T01:03:08.509Z,1035.90
2019-02-25T01:03:09.108Z,1035.89
2019-02-25T01:03:09.707Z,1035.89
2019-02-25T01:03:10.310Z,1035.92
2019-02-25T01:03:10.907Z,1035.93
2019-02-25T01:03:11.507Z,1035.92
2019-02-25T01:03:12.112Z,1035.91
2019-02-25T01:04:06.611Z,1035.91
2019-02-25T01:04:07.183Z,1035.87
2019-02-25T01:04:07.782Z,1035.89
2019-02-25T01:04:08.385Z,1035.88
2019-02-25T01:04:08.984Z,1035.90
2019-02-25T01:04:09.583Z,1035.91
2019-02-25T01:04:10.182Z,1035.89
2019-02-25T01:04:10.793Z,1035.88
2019-02-25T01:05:05.284Z,1035.91
2019-02-25T01:05:05.861Z,1035.87
2019-02-25T01:05:06.463Z,1035.88
2019-02-25T01:05:07.060Z,1035.86
2019-02-25T01:05:07.662Z,1035.87
2019-02-25T01:05:08.259Z,1035.88
2019-02-25T01:05:08.865Z,1035.92
2019-02-25T01:05:09.457Z,1035.90
2019-02-25T01:06:03.959Z,1035.90
2019-02-25T01:06:04.535Z,1035.88
2019-02-25T01:06:05.135Z,1035.89
2019-02-25T01:06:05.737Z,1035.87
2019-02-25T01:06:06.334Z,1035.89
2019-02-25T01:06:06.935Z,1035.87
2019-02-25T01:06:07.534Z,1035.87
2019-02-25T01:06:08.136Z,1035.84
2019-02-25T01:07:01.613Z,1035.89
2019-02-25T01:07:02.188Z,1035.89
2019-02-25T01:07:02.788Z,1035.86
2019-02-25T01:07:03.387Z,1035.84
2019-02-25T01:07:03.989Z,1035.89
2019-02-25T01:07:04.589Z,1035.88
2019-02-25T01:07:05.189Z,1035.85
2019-02-25T01:07:05.788Z,1035.85
2019-02-25T01:07:59.264Z,1035.84
2019-02-25T01:07:59.841Z,1035.85
2019-02-25T01:08:00.440Z,1035.86
2019-02-25T01:08:01.039Z,1035.86
2019-02-25T01:08:01.638Z,1035.83
2019-02-25T01:08:02.238Z,1035.82
2019-02-25T01:08:02.838Z,1035.85
2019-02-25T01:08:03.439Z,1035.86
2019-02-25T01:08:56.915Z,1035.90
2019-02-25T01:08:57.489Z,1035.84
2019-02-25T01:08:58.090Z,1035.87
2019-02-25T01:08:58.690Z,1035.89
2019-02-25T01:08:59.290Z,1035.88
2019-02-25T01:08:59.890Z,1035.90
2019-02-25T01:09:00.489Z,1035.87
2019-02-25T01:09:01.091Z,1035.84
2019-02-25T01:09:54.571Z,1035.83
2019-02-25T01:09:55.142Z,1035.85
2019-02-25T01:09:55.741Z,1035.85
2019-02-25T01:09:56.341Z,1035.85
2019-02-25T01:09:56.942Z,1035.86
2019-02-25T01:09:57.541Z,1035.86
2019-02-25T01:09:58.141Z,1035.85
2019-02-25T01:09:58.741Z,1035.85
2019-02-25T01:10:52.220Z,1035.89
2019-02-25T01:10:52.794Z,1035.89
2019-02-25T01:10:53.396Z,1035.89
2019-02-25T01:10:53.994Z,1035.91
2019-02-25T01:10:54.595Z,1035.88
2019-02-25T01:10:55.194Z,1035.87
2019-02-25T01:10:55.793Z,1035.87
2019-02-25T01:10:56.396Z,1035.85
2019-02-25T01:11:50.899Z,1035.82
2019-02-25T01:11:51.470Z,1035.86
2019-02-25T01:11:52.070Z,1035.86
2019-02-25T01:11:52.668Z,1035.84
2019-02-25T01:11:53.269Z,1035.82
2019-02-25T01:11:53.868Z,1035.83
2019-02-25T01:11:54.469Z,1035.82
2019-02-25T01:11:55.071Z,1035.87
2019-02-25T01:12:48.547Z,1035.86
2019-02-25T01:12:49.121Z,1035.88
2019-02-25T01:12:49.724Z,1035.88
2019-02-25T01:12:50.323Z,1035.88
2019-02-25T01:12:50.922Z,1035.86
2019-02-25T01:12:51.523Z,1035.85
2019-02-25T01:12:52.120Z,1035.83
2019-02-25T01:12:52.723Z,1035.88
2019-02-25T01:13:47.222Z,1035.86
2019-02-25T01:13:47.796Z,1035.84
2019-02-25T01:13:48.397Z,1035.83
2019-02-25T01:13:48.996Z,1035.86
2019-02-25T01:13:49.595Z,1035.86
2019-02-25T01:13:50.197Z,1035.87
2019-02-25T01:13:50.796Z,1035.87
2019-02-25T01:13:51.394Z,1035.85
2019-02-25T01:14:44.875Z,1035.86
2019-02-25T01:14:45.450Z,1035.86
2019-02-25T01:14:46.048Z,1035.88
2019-02-25T01:14:46.649Z,1035.86
2019-02-25T01:14:47.248Z,1035.83
2019-02-25T01:14:47.848Z,1035.85
2019-02-25T01:14:48.448Z,1035.85
2019-02-25T01:14:49.049Z,1035.84
2019-02-25T01:15:42.529Z,1035.85
2019-02-25T01:15:43.101Z,1035.84
2019-02-25T01:15:43.699Z,1035.84
2019-02-25T01:15:44.301Z,1035.83
2019-02-25T01:15:44.900Z,1035.89
2019-02-25T01:15:45.502Z,1035.83
2019-02-25T01:15:46.099Z,1035.89
2019-02-25T01:15:46.698Z,1035.90
2019-02-25T01:16:41.204Z,1035.88
2019-02-25T01:16:41.835Z,1035.84
2019-02-25T01:16:42.379Z,1035.86
2019-02-25T01:16:42.978Z,1035.85
2019-02-25T01:16:43.577Z,1035.85
2019-02-25T01:16:44.178Z,1035.88
2019-02-25T01:16:44.776Z,1035.86
2019-02-25T01:16:45.375Z,1035.85
2019-02-25T01:17:39.877Z,1035.89
2019-02-25T01:17:40.453Z,1035.88
2019-02-25T01:17:41.051Z,1035.86
2019-02-25T01:17:41.650Z,1035.86
2019-02-25T01:17:42.250Z,1035.84
2019-02-25T01:17:42.850Z,1035.88
2019-02-25T01:17:43.452Z,1035.87
2019-02-25T01:17:44.054Z,1035.80
2019-02-25T01:18:37.530Z,1035.86
2019-02-25T01:18:38.105Z,1035.83
2019-02-25T01:18:38.710Z,1035.83
2019-02-25T01:18:39.304Z,1035.83
2019-02-25T01:18:39.903Z,1035.84
2019-02-25T01:18:40.503Z,1035.85
2019-02-25T01:18:41.103Z,1035.83
2019-02-25T01:18:41.702Z,1035.87
2019-02-25T01:19:35.182Z,1035.83
2019-02-25T01:19:35.757Z,1035.84
2019-02-25T01:19:36.358Z,1035.84
2019-02-25T01:19:36.957Z,1035.83
2019-02-25T01:19:37.556Z,1035.82
2019-02-25T01:19:38.155Z,1035.87
2019-02-25T01:19:38.755Z,1035.80
2019-02-25T01:19:39.355Z,1035.83
2019-02-25T01:20:33.857Z,1035.85
2019-02-25T01:20:34.432Z,1035.85
2019-02-25T01:20:35.032Z,1035.85
2019-02-25T01:20:35.630Z,1035.85
2019-02-25T01:20:36.231Z,1035.85
2019-02-25T01:20:36.831Z,1035.85
2019-02-25T01:20:37.429Z,1035.86
2019-02-25T01:20:38.034Z,1035.87
2019-02-25T01:21:31.509Z,1035.86
2019-02-25T01:21:32.083Z,1035.86
2019-02-25T01:21:32.683Z,1035.85
2019-02-25T01:21:33.283Z,1035.85
2019-02-25T01:21:33.882Z,1035.83
2019-02-25T01:21:34.482Z,1035.86
2019-02-25T01:21:35.084Z,1035.82
2019-02-25T01:21:35.684Z,1035.86
2019-02-25T01:22:30.189Z,1035.89
2019-02-25T01:22:30.758Z,1035.87
2019-02-25T01:22:31.360Z,1035.87
2019-02-25T01:22:31.957Z,1035.91
2019-02-25T01:22:32.557Z,1035.87
2019-02-25T01:22:33.160Z,1035.89
2019-02-25T01:22:33.756Z,1035.88
2019-02-25T01:22:34.356Z,1035.93
2019-02-25T01:23:28.859Z,1035.93
2019-02-25T01:23:29.435Z,1035.86
2019-02-25T01:23:30.035Z,1035.85
2019-02-25T01:23:30.635Z,1035.84
2019-02-25T01:23:31.233Z,1035.89
2019-02-25T01:23:31.834Z,1035.90
2019-02-25T01:23:32.432Z,1035.88
2019-02-25T01:23:33.033Z,1035.89
2019-02-25T01:24:26.514Z,1035.90
2019-02-25T01:24:27.086Z,1035.87
2019-02-25T01:24:27.685Z,1035.91
2019-02-25T01:24:28.286Z,1035.88
2019-02-25T01:24:28.885Z,1035.88
2019-02-25T01:24:29.489Z,1035.87
2019-02-25T01:24:30.085Z,1035.87
2019-02-25T01:24:30.684Z,1035.84
2019-02-25T01:25:24.164Z,1035.88
2019-02-25T01:25:24.737Z,1035.87
2019-02-25T01:25:25.337Z,1035.91
2019-02-25T01:25:25.940Z,1035.94
2019-02-25T01:25:26.539Z,1035.92
2019-02-25T01:25:27.138Z,1035.93
2019-02-25T01:25:27.737Z,1035.91
2019-02-25T01:25:28.337Z,1035.88
2019-02-25T01:26:21.819Z,1035.91
2019-02-25T01:26:22.389Z,1035.92
2019-02-25T01:26:22.988Z,1035.87
2019-02-25T01:26:23.590Z,1035.92
2019-02-25T01:26:24.188Z,1035.91
2019-02-25T01:26:24.789Z,1035.91
2019-02-25T01:26:25.388Z,1035.89
2019-02-25T01:26:25.991Z,1035.87
2019-02-25T01:27:19.467Z,1035.95
2019-02-25T01:27:20.041Z,1035.88
2019-02-25T01:27:20.641Z,1035.88
2019-02-25T01:27:21.240Z,1035.91
2019-02-25T01:27:21.841Z,1035.90
2019-02-25T01:27:22.439Z,1035.91
2019-02-25T01:27:23.045Z,1035.91
2019-02-25T01:27:23.642Z,1035.90
2019-02-25T01:28:17.120Z,1035.89
2019-02-25T01:28:17.694Z,1035.92
2019-02-25T01:28:18.294Z,1035.93
2019-02-25T01:28:18.894Z,1035.94
2019-02-25T01:28:19.492Z,1035.91
2019-02-25T01:28:20.092Z,1035.93
2019-02-25T01:28:20.693Z,1035.92
2019-02-25T01:28:21.302Z,1035.93
2019-02-25T01:29:15.793Z,1035.92
2019-02-25T01:29:16.371Z,1035.87
2019-02-25T01:29:16.973Z,1035.94
2019-02-25T01:29:17.567Z,1035.91
2019-02-25T01:29:18.167Z,1035.94
2019-02-25T01:29:18.766Z,1035.94
2019-02-25T01:29:19.368Z,1035.92
2019-02-25T01:29:19.966Z,1035.92
2019-02-25T01:30:13.446Z,1035.93
2019-02-25T01:30:14.034Z,1035.91
2019-02-25T01:30:14.620Z,1035.92
2019-02-25T01:30:15.220Z,1035.93
2019-02-25T01:30:15.822Z,1035.96
2019-02-25T01:30:16.426Z,1035.95
2019-02-25T01:30:17.029Z,1035.95
2019-02-25T01:30:17.622Z,1035.94
2019-02-25T01:31:11.098Z,1035.95
2019-02-25T01:31:11.672Z,1035.93
2019-02-25T01:31:12.273Z,1035.91
2019-02-25T01:31:12.872Z,1035.92
2019-02-25T01:31:13.471Z,1035.91
2019-02-25T01:31:14.073Z,1035.94
2019-02-25T01:31:14.672Z,1035.93
2019-02-25T01:31:15.271Z,1035.94
2019-02-25T01:32:08.749Z,1035.89
2019-02-25T01:32:09.324Z,1035.89
2019-02-25T01:32:09.923Z,1035.92
2019-02-25T01:32:10.539Z,1035.92
2019-02-25T01:32:11.124Z,1035.92
2019-02-25T01:32:11.723Z,1035.91
2019-02-25T01:32:12.321Z,1035.90
2019-02-25T01:32:12.926Z,1035.94
2019-02-25T01:33:06.400Z,1035.91
2019-02-25T01:33:06.978Z,1035.92
2019-02-25T01:33:07.575Z,1035.92
2019-02-25T01:33:08.176Z,1035.88
2019-02-25T01:33:08.775Z,1035.91
2019-02-25T01:33:09.375Z,1035.94
2019-02-25T01:33:09.974Z,1035.92
2019-02-25T01:33:10.577Z,1035.94
2019-02-25T01:34:05.080Z,1035.91
2019-02-25T01:34:05.655Z,1035.90
2019-02-25T01:34:06.253Z,1035.90
2019-02-25T01:34:06.854Z,1035.92
2019-02-25T01:34:07.453Z,1035.88
2019-02-25T01:34:08.054Z,1035.89
2019-02-25T01:34:08.653Z,1035.91
2019-02-25T01:34:09.253Z,1035.89
2019-02-25T01:35:03.758Z,1035.91
2019-02-25T01:35:04.327Z,1035.96
2019-02-25T01:35:04.926Z,1035.92
2019-02-25T01:35:05.525Z,1035.90
2019-02-25T01:35:06.127Z,1035.90
2019-02-25T01:35:06.726Z,1035.86
2019-02-25T01:35:07.326Z,1035.89
2019-02-25T01:35:07.926Z,1035.94
2019-02-25T01:36:02.426Z,1035.93
2019-02-25T01:36:03.001Z,1035.91
2019-02-25T01:36:03.601Z,1035.92
2019-02-25T01:36:04.201Z,1035.96
2019-02-25T01:36:04.802Z,1035.95
2019-02-25T01:36:05.401Z,1035.94
2019-02-25T01:36:06.001Z,1035.93
2019-02-25T01:36:06.600Z,1035.95
2019-02-25T01:37:01.105Z,1035.91
2019-02-25T01:37:01.685Z,1035.90
2019-02-25T01:37:02.280Z,1035.92
2019-02-25T01:37:02.879Z,1035.92
2019-02-25T01:37:03.476Z,1035.90
2019-02-25T01:37:04.077Z,1035.88
2019-02-25T01:37:04.679Z,1035.91
2019-02-25T01:37:05.277Z,1035.94
2019-02-25T01:37:59.780Z,1035.92
2019-02-25T01:38:00.356Z,1035.92
2019-02-25T01:38:00.953Z,1035.92
2019-02-25T01:38:01.553Z,1035.91
2019-02-25T01:38:02.154Z,1035.93
2019-02-25T01:38:02.755Z,1035.91
2019-02-25T01:38:03.352Z,1035.93
2019-02-25T01:38:03.954Z,1035.91
2019-02-25T01:38:57.433Z,1035.95
2019-02-25T01:38:58.007Z,1035.95
2019-02-25T01:38:58.608Z,1035.93
2019-02-25T01:38:59.205Z,1035.95
2019-02-25T01:38:59.806Z,1035.93
2019-02-25T01:39:00.406Z,1035.95
2019-02-25T01:39:01.006Z,1035.91
2019-02-25T01:39:01.605Z,1035.92
2019-02-25T01:39:55.081Z,1035.90
2019-02-25T01:39:55.658Z,1035.91
2019-02-25T01:39:56.257Z,1035.90
2019-02-25T01:39:56.860Z,1035.92
2019-02-25T01:39:57.456Z,1035.94
2019-02-25T01:39:58.057Z,1035.92
2019-02-25T01:39:58.657Z,1035.89
2019-02-25T01:39:59.257Z,1035.93
2019-02-25T01:40:53.761Z,1035.90
2019-02-25T01:40:54.332Z,1035.88
2019-02-25T01:40:54.932Z,1035.90
2019-02-25T01:40:55.532Z,1035.86
2019-02-25T01:40:56.133Z,1035.92
2019-02-25T01:40:56.730Z,1035.88
2019-02-25T01:40:57.332Z,1035.88
2019-02-25T01:40:57.930Z,1035.89
2019-02-25T01:41:51.412Z,1035.92
2019-02-25T01:41:51.985Z,1035.89
2019-02-25T01:41:52.585Z,1035.86
2019-02-25T01:41:53.186Z,1035.80
2019-02-25T01:41:53.786Z,1035.86
2019-02-25T01:41:54.384Z,1035.87
2019-02-25T01:41:54.984Z,1035.90
2019-02-25T01:41:55.583Z,1035.89
2019-02-25T01:42:49.064Z,1035.91
2019-02-25T01:42:49.636Z,1035.88
2019-02-25T01:42:50.238Z,1035.87
2019-02-25T01:42:50.838Z,1035.86
2019-02-25T01:42:51.436Z,1035.85
2019-02-25T01:42:52.036Z,1035.86
2019-02-25T01:42:52.635Z,1035.89
2019-02-25T01:42:53.238Z,1035.84
2019-02-25T01:43:46.717Z,1035.84
2019-02-25T01:43:47.292Z,1035.84
2019-02-25T01:43:47.888Z,1035.82
2019-02-25T01:43:48.489Z,1035.83
2019-02-25T01:43:49.088Z,1035.85
2019-02-25T01:43:49.688Z,1035.85
2019-02-25T01:43:50.290Z,1035.85
2019-02-25T01:43:50.890Z,1035.86
2019-02-25T01:44:44.364Z,1035.87
2019-02-25T01:44:44.941Z,1035.89
2019-02-25T01:44:45.545Z,1035.86
2019-02-25T01:44:46.143Z,1035.86
2019-02-25T01:44:46.741Z,1035.83
2019-02-25T01:44:47.339Z,1035.87
2019-02-25T01:44:47.938Z,1035.88
2019-02-25T01:44:48.542Z,1035.88
2019-02-25T01:45:43.041Z,1035.87
2019-02-25T01:45:43.618Z,1035.84
2019-02-25T01:45:44.214Z,1035.86
2019-02-25T01:45:44.814Z,1035.86
2019-02-25T01:45:45.413Z,1035.84
2019-02-25T01:45:46.014Z,1035.86
2019-02-25T01:45:46.614Z,1035.86
2019-02-25T01:45:47.217Z,1035.85
2019-02-25T01:46:41.716Z,1035.87
2019-02-25T01:46:42.291Z,1035.82
2019-02-25T01:46:42.891Z,1035.86
2019-02-25T01:46:43.494Z,1035.85
2019-02-25T01:46:44.089Z,1035.85
2019-02-25T01:46:44.690Z,1035.86
2019-02-25T01:46:45.290Z,1035.86
2019-02-25T01:46:45.889Z,1035.83
2019-02-25T01:47:39.370Z,1035.85
2019-02-25T01:47:39.943Z,1035.86
2019-02-25T01:47:40.542Z,1035.84
2019-02-25T01:47:41.146Z,1035.85
2019-02-25T01:47:41.743Z,1035.83
2019-02-25T01:47:42.347Z,1035.83
2019-02-25T01:47:42.943Z,1035.86
2019-02-25T01:47:43.545Z,1035.82
2019-02-25T01:48:37.021Z,1035.85
2019-02-25T01:48:37.595Z,1035.85
2019-02-25T01:48:38.195Z,1035.88
2019-02-25T01:48:38.797Z,1035.83
2019-02-25T01:48:39.396Z,1035.87
2019-02-25T01:48:39.996Z,1035.88
2019-02-25T01:48:40.593Z,1035.80
2019-02-25T01:48:41.194Z,1035.82
2019-02-25T01:49:35.695Z,1035.86
2019-02-25T01:49:36.270Z,1035.84
2019-02-25T01:49:36.869Z,1035.86
2019-02-25T01:49:37.469Z,1035.84
2019-02-25T01:49:38.070Z,1035.85
2019-02-25T01:49:38.669Z,1035.86
2019-02-25T01:49:39.269Z,1035.84
2019-02-25T01:49:39.869Z,1035.87
2019-02-25T01:50:34.371Z,1035.85
2019-02-25T01:50:34.946Z,1035.84
2019-02-25T01:50:35.546Z,1035.84
2019-02-25T01:50:36.146Z,1035.80
2019-02-25T01:50:36.746Z,1035.84
2019-02-25T01:50:37.344Z,1035.83
2019-02-25T01:50:37.945Z,1035.86
2019-02-25T01:50:38.543Z,1035.87
2019-02-25T01:51:33.047Z,1035.83
2019-02-25T01:51:33.621Z,1035.88
2019-02-25T01:51:34.220Z,1035.86
2019-02-25T01:51:34.820Z,1035.85
2019-02-25T01:51:35.421Z,1035.83
2019-02-25T01:51:36.020Z,1035.89
2019-02-25T01:51:36.620Z,1035.86
2019-02-25T01:51:37.221Z,1035.85
2019-02-25T01:52:31.723Z,1035.87
2019-02-25T01:52:32.296Z,1035.87
2019-02-25T01:52:32.896Z,1035.87
2019-02-25T01:52:33.499Z,1035.86
2019-02-25T01:52:34.095Z,1035.84
2019-02-25T01:52:34.695Z,1035.89
2019-02-25T01:52:35.296Z,1035.85
2019-02-25T01:52:35.894Z,1035.88
2019-02-25T01:53:30.396Z,1035.87
2019-02-25T01:53:30.973Z,1035.82
2019-02-25T01:53:31.572Z,1035.88
2019-02-25T01:53:32.173Z,1035.85
2019-02-25T01:53:32.772Z,1035.85
2019-02-25T01:53:33.375Z,1035.85
2019-02-25T01:53:33.971Z,1035.85
2019-02-25T01:53:34.574Z,1035.83
2019-02-25T01:54:28.051Z,1035.91
2019-02-25T01:54:28.625Z,1035.94
2019-02-25T01:54:29.224Z,1035.90
2019-02-25T01:54:29.825Z,1035.88
2019-02-25T01:54:30.423Z,1035.91
2019-02-25T01:54:31.024Z,1035.92
2019-02-25T01:54:31.624Z,1035.92
2019-02-25T01:54:32.225Z,1035.87
2019-02-25T01:55:25.703Z,1035.87
2019-02-25T01:55:26.276Z,1035.87
2019-02-25T01:55:26.880Z,1035.85
2019-02-25T01:55:27.476Z,1035.85
2019-02-25T01:55:28.077Z,1035.91
2019-02-25T01:55:28.677Z,1035.84
2019-02-25T01:55:29.276Z,1035.90
2019-02-25T01:55:29.874Z,1035.88
2019-02-25T01:56:24.377Z,1035.88
2019-02-25T01:56:24.952Z,1035.85
2019-02-25T01:56:25.551Z,1035.88
2019-02-25T01:56:26.152Z,1035.86
2019-02-25T01:56:26.751Z,1035.85
2019-02-25T01:56:27.351Z,1035.84